Alconbury RAF, United Kingdom

4:08 AM BST on August 30, 2015 (GMT +0100)
Huntingdon | | Change Station
CLOSE
Current Station
Personal Weather Station
Location: Huntingdon,
Elevation: 79 ft
Nearby Weather Stations

Elev 79 ft 52.34 °N, 0.17 °W | Updated 12 seconds ago

Mostly Cloudy
Mostly Cloudy
60.8 °F
Feels Like 60.8 °F
N
0.0
Wind Variable Wind from NNE
Gusts 0.0 mph

Today
High -- | Low -- °F
--% Chance of Precip.
Yesterday
High -- | Low -- °F
Precip. -- in
6:07 AM 7:54 PM
Full, 100% visible
Pressure 30.06 in
Visibility 6.2 miles
Clouds Mostly Cloudy 10000 ft
Mostly Cloudy 16000 ft
Dew Point 58 °F
Humidity 90%
Rainfall 0.00 in
Snow Depth Not available.
UV 0 out of 12
Pollen Not available.
Air Quality Not available.
Flu Activity Not available.
METAR EGXT 300250Z AUTO 34003KT 9999 BKN100/// BKN160/// 15/11 Q1018 RERA
Pressure 30.06 in
Visibility 6.2 miles
Clouds Mostly Cloudy 10000 ft
Mostly Cloudy 16000 ft
Dew Point 58 °F
Humidity 90%
Rainfall 0.00 in
Snow Depth Not available.
UV 0 out of 12
Pollen Not available.
Air Quality Not available.
Flu Activity Not available.
METAR EGXT 300250Z AUTO 34003KT 9999 BKN100/// BKN160/// 15/11 Q1018 RERA

10-Day Weather Forecast

×

Almanac

Astronomy

Aug. 30, 2015 Rise Set
Actual Time
Civil Twilight
Nautical Twilight
Astronomical Twilight
Moon
Length of Visible Light
Length of Day
Tomorrow will be .
, % of the Moon is Illuminated

Today's Extremes

Country Highs Country Lows

Community

WunderPhotos

Upload Photos

1,850,857 photos uploaded!

WunderBlogs® & News

Nearby

Air Quality

  Air Quality AQ Index Pollutant
Not available.

Snow Depth

Station Depth Elevation

Earthquake Activity

City Distance Mag. Time & Date
Minimum magnitude displayed is 2.5.

Coastal Water Temperatures

Place Temperature

Stations

Nearby Weather Stations

Station Location Temp. Windchill Dew Point Humidity Wind Precip. Elev Updated Type